PAED METAR and TAF weather

Enter ICAO airport designator
Station Type Date Time Source
PAED METAR 2023/02/05 14:03 UTC NOAA

PAED 051403Z 04004KT 1 1/2SM BR OVC002 M09/M10 A2927 RMK AO2A SLP911


Station Type Date Time Source
PAED Decoded METAR 2023/02/05 14:03 UTC NOAA

Anchorage, Elmendorf Air Force Base, AK, United States (PAED) 61-15-11N 149-47-38W 59M
Feb 05, 2023 - 09:03 AM EST / 2023.02.05 1403 UTC
Wind: from the NE (040 degrees) at 5 MPH (4 KT):0
Visibility: 1 1/2 mile(s):0
Sky conditions: overcast
Weather: mist
Temperature: 15 F (-9 C)
Windchill: 6 F (-14 C):1
Dew Point: 14 F (-10 C)
Relative Humidity: 92%
Pressure (altimeter): 29.27 in. Hg (991 hPa)
ob: PAED 051403Z 04004KT 1 1/2SM BR OVC002 M09/M10 A2927 RMK AO2A SLP911
cycle: 14

Station Type Date Time Source
PAED TAF 2023/02/05 14:06 UTC NOAA

TAF TAF PAED 051400Z 0514/0620 02012KT 1600 BR BKN002 BKN200 610021 520205 QNH2924INS
TEMPO 0514/0516 4000 BR SCT002
BECMG 0515/0516 02012KT 9999 NSW FEW005 BKN200 QNH2916INS
BECMG 0517/0518 02012G18KT 9999 FEW050 SCT120 BKN200 520104 550502 QNH2907INS
BECMG 0520/0521 02012G20KT 9999 FEW050 BKN100 BKN200 530104 550503 QNH2900INS
BECMG 0522/0523 02015G25KT 9999 DRSN VCSH BKN050 BKN120 BKN200 620504 530104 550504 QNH2870INS
BECMG 0606/0607 03010G15KT 9999 NSW FEW050 BKN100 520203 540502 QNH2867INS
BECMG 0613/0614 03009KT 9999 BKN080 620804 520205 QNH2868INS
BECMG 0618/0619 21009KT 6000 -SN BR FEW010 SCT030 BKN045 OVC080 620458 510105 QNH2888INS TXM04/0600Z TNM09/0514Z

Example: see airport list